Time;durP1;ratioP1;P1;durP2;ratioP2;P2;SDS_P1;SDS_P2;PMS_P1;PMS_P2;Temp;Humidity;BMP_temperature;BMP_pressure;BME280_temperature;BME280_humidity;BME280_pressure;Samples;Min_cycle;Max_cycle;Signal;HPM_P1;HPM_P2
2021/04/18 00:00:11;;;;;;;11.10;9.63;;;4.30;90.10;;;;;;6067795;23;20852;-87
2021/04/18 00:02:51;;;;;;;10.43;9.43;;;4.20;90.40;;;;;;6072096;23;20435;-87
2021/04/18 00:05:40;;;;;;;9.70;8.80;;;4.30;91.10;;;;;;6072142;23;20415;-88
2021/04/18 00:08:20;;;;;;;10.13;9.13;;;4.20;91.00;;;;;;6081506;23;20419;-87
2021/04/18 00:11:05;;;;;;;12.83;9.77;;;4.40;90.90;;;;;;6084554;23;20415;-87
2021/04/18 00:16:29;;;;;;;16.57;10.10;;;4.20;90.10;;;;;;6078443;23;20403;-86
2021/04/18 00:19:07;;;;;;;15.00;12.10;;;4.20;90.40;;;;;;6071274;23;21187;-86
2021/04/18 00:21:50;;;;;;;13.00;9.73;;;4.40;90.60;;;;;;6081085;23;20431;-86
2021/04/18 00:24:22;;;;;;;14.43;10.83;;;4.20;90.10;;;;;;6092037;23;20663;-87
2021/04/18 00:27:00;;;;;;;9.23;8.30;;;4.20;90.50;;;;;;6125730;23;20837;-86
2021/04/18 00:32:26;;;;;;;10.63;9.47;;;4.40;90.50;;;;;;6114371;23;20411;-86
2021/04/18 00:35:30;;;;;;;10.77;9.40;;;4.30;90.40;;;;;;6107088;23;20418;-86
2021/04/18 00:38:18;;;;;;;11.90;9.73;;;4.30;90.20;;;;;;6119374;23;20414;-87
2021/04/18 00:40:52;;;;;;;14.17;10.90;;;4.30;90.10;;;;;;6119538;23;20430;-87
2021/04/18 00:43:39;;;;;;;11.57;9.87;;;4.30;90.40;;;;;;6099401;23;20469;-86
2021/04/18 00:49:22;;;;;;;11.63;9.60;;;4.30;90.50;;;;;;6105060;23;20434;-87
2021/04/18 00:52:03;;;;;;;9.43;8.50;;;4.30;90.90;;;;;;6106263;23;20500;-87
2021/04/18 00:54:42;;;;;;;10.30;9.30;;;4.30;90.90;;;;;;6086203;23;20422;-86
2021/04/18 00:57:25;;;;;;;11.10;9.80;;;4.30;90.80;;;;;;6115020;23;20718;-87
2021/04/18 01:00:16;;;;;;;11.90;10.63;;;4.30;90.90;;;;;;6068901;23;20438;-87
2021/04/18 01:06:04;;;;;;;10.03;9.03;;;4.30;91.20;;;;;;6112400;23;20394;-87
2021/04/18 01:08:40;;;;;;;14.23;10.13;;;4.30;90.50;;;;;;6117715;23;20393;-87
2021/04/18 01:11:15;;;;;;;12.93;11.40;;;4.30;91.40;;;;;;6128782;23;20465;-86
2021/04/18 01:16:48;;;;;;;11.30;10.20;;;4.20;91.30;;;;;;6102315;23;20414;-86
2021/04/18 01:19:25;;;;;;;11.30;10.10;;;4.20;92.00;;;;;;6098587;23;20417;-88
2021/04/18 01:25:00;;;;;;;14.13;12.60;;;4.20;92.10;;;;;;6107206;23;20419;-89
2021/04/18 01:27:46;;;;;;;13.63;12.33;;;4.20;92.20;;;;;;6116127;23;20479;-88
2021/04/18 01:33:13;;;;;;;12.73;11.43;;;4.20;92.90;;;;;;6080666;23;20473;-87
2021/04/18 01:38:47;;;;;;;13.73;11.80;;;4.30;92.90;;;;;;6103032;23;20657;-87
2021/04/18 01:41:23;;;;;;;12.87;11.63;;;4.30;93.30;;;;;;6118983;23;20409;-88
2021/04/18 01:44:13;;;;;;;15.80;12.87;;;4.30;93.60;;;;;;6059247;23;20490;-87
2021/04/18 01:46:56;;;;;;;13.73;12.20;;;4.40;93.40;;;;;;6103373;23;20411;-87
2021/04/18 01:49:36;;;;;;;15.17;12.90;;;4.20;94.30;;;;;;6108790;23;20414;-87
2021/04/18 01:52:12;;;;;;;15.73;12.43;;;4.20;95.10;;;;;;6122144;23;20423;-87
2021/04/18 01:55:01;;;;;;;15.33;13.90;;;4.20;96.10;;;;;;6110507;23;20481;-88
2021/04/18 01:57:52;;;;;;;14.87;13.37;;;4.20;96.70;;;;;;6116447;23;20415;-87
2021/04/18 02:00:37;;;;;;;18.10;12.97;;;4.20;97.20;;;;;;6120795;23;20771;-88
2021/04/18 02:03:17;;;;;;;15.37;13.80;;;4.10;97.20;;;;;;6122324;23;20496;-88
2021/04/18 02:05:57;;;;;;;15.60;12.50;;;4.30;98.00;;;;;;6128692;23;20414;-87
2021/04/18 02:08:36;;;;;;;14.13;12.27;;;4.20;96.90;;;;;;6118181;23;20421;-87
2021/04/18 02:11:18;;;;;;;15.03;13.40;;;4.20;97.50;;;;;;6120553;23;20438;-87
2021/04/18 02:14:04;;;;;;;14.53;13.10;;;4.10;98.20;;;;;;6121516;23;20485;-87
2021/04/18 02:16:39;;;;;;;15.37;13.83;;;4.10;99.10;;;;;;6128459;23;20486;-87
2021/04/18 02:19:28;;;;;;;17.10;13.77;;;4.20;98.60;;;;;;6131073;23;20470;-88
2021/04/18 02:22:11;;;;;;;13.90;12.40;;;4.30;98.30;;;;;;6126177;23;20497;-88
2021/04/18 02:24:51;;;;;;;14.77;13.23;;;4.20;97.10;;;;;;6115998;23;20484;-88
2021/04/18 02:27:37;;;;;;;15.87;14.07;;;4.20;98.10;;;;;;6117090;23;20411;-88
2021/04/18 02:30:27;;;;;;;15.20;13.70;;;4.30;98.50;;;;;;6096709;23;20414;-86
2021/04/18 02:33:05;;;;;;;17.07;15.23;;;4.20;98.10;;;;;;6077352;23;20522;-86
2021/04/18 02:35:40;;;;;;;19.07;15.10;;;4.10;98.30;;;;;;6111365;23;20417;-86
2021/04/18 02:38:20;;;;;;;19.27;15.10;;;4.10;97.90;;;;;;6109891;23;20813;-86
2021/04/18 02:41:06;;;;;;;17.70;15.80;;;4.10;99.20;;;;;;6099601;23;20483;-87
2021/04/18 02:43:43;;;;;;;18.30;15.80;;;4.10;98.00;;;;;;6083141;23;20456;-86
2021/04/18 02:49:18;;;;;;;18.90;16.73;;;4.10;98.90;;;;;;6096080;23;20734;-87
2021/04/18 02:51:58;;;;;;;17.33;15.10;;;4.10;99.10;;;;;;6109859;23;20412;-87
2021/04/18 02:54:44;;;;;;;16.00;14.40;;;4.20;99.90;;;;;;6099424;23;20410;-87
2021/04/18 02:57:25;;;;;;;16.67;15.00;;;4.20;98.80;;;;;;6109696;23;20386;-87
2021/04/18 03:00:06;;;;;;;16.57;14.97;;;4.30;99.40;;;;;;6111741;23;20422;-87
2021/04/18 03:02:47;;;;;;;20.40;15.60;;;4.20;99.90;;;;;;6125780;23;20435;-87
2021/04/18 03:08:18;;;;;;;16.63;14.67;;;4.20;99.90;;;;;;6113339;23;20461;-86
2021/04/18 03:11:03;;;;;;;17.40;14.90;;;4.20;99.90;;;;;;6106393;23;20414;-87
2021/04/18 03:19:19;;;;;;;15.90;14.40;;;4.10;99.90;;;;;;6100906;23;20413;-87
2021/04/18 03:22:11;;;;;;;16.00;14.30;;;4.10;99.90;;;;;;6112930;23;20563;-86
2021/04/18 03:24:54;;;;;;;17.50;15.53;;;4.00;99.90;;;;;;6070296;23;20419;-86
2021/04/18 03:27:41;;;;;;;18.23;16.40;;;4.10;99.90;;;;;;6080095;23;20448;-86
2021/04/18 03:30:23;;;;;;;17.00;15.37;;;4.00;99.90;;;;;;6080447;23;20475;-87
2021/04/18 03:33:17;;;;;;;18.40;16.50;;;4.10;99.90;;;;;;6080398;23;20486;-85
2021/04/18 03:35:57;;;;;;;17.53;15.73;;;4.00;99.90;;;;;;6070300;23;20416;-86
2021/04/18 03:38:37;;;;;;;17.07;14.70;;;4.00;99.90;;;;;;6068939;23;20423;-86
2021/04/18 03:41:19;;;;;;;17.90;16.10;;;4.00;99.90;;;;;;6088588;23;20415;-86
2021/04/18 03:44:02;;;;;;;18.40;16.10;;;4.00;99.90;;;;;;6086987;23;20446;-86
2021/04/18 03:46:49;;;;;;;19.83;16.07;;;3.90;99.90;;;;;;6094270;23;20400;-87
2021/04/18 03:55:20;;;;;;;17.03;15.27;;;4.00;99.90;;;;;;6094903;23;20415;-86
2021/04/18 03:58:01;;;;;;;16.87;15.17;;;4.00;99.90;;;;;;6087411;23;20414;-87
2021/04/18 04:00:42;;;;;;;20.87;16.23;;;3.90;99.90;;;;;;6083206;23;20883;-87
2021/04/18 04:03:22;;;;;;;17.83;15.93;;;3.90;99.90;;;;;;6093873;23;20514;-87
2021/04/18 04:06:08;;;;;;;18.10;15.03;;;3.90;99.90;;;;;;6083966;23;20478;-86
2021/04/18 04:08:47;;;;;;;19.80;16.33;;;3.90;99.90;;;;;;6082789;23;20419;-87
2021/04/18 04:11:27;;;;;;;19.73;16.23;;;3.80;99.90;;;;;;6092996;23;20411;-87
2021/04/18 04:14:06;;;;;;;17.83;15.60;;;3.80;99.90;;;;;;6081749;23;20414;-87
2021/04/18 04:16:45;;;;;;;20.60;14.60;;;3.90;99.90;;;;;;6092843;23;20411;-87
2021/04/18 04:25:15;;;;;;;16.03;14.33;;;3.90;99.70;;;;;;6102697;23;20465;-87
2021/04/18 04:27:54;;;;;;;18.70;15.27;;;3.90;99.90;;;;;;6122155;23;20422;-87
2021/04/18 04:30:34;;;;;;;16.97;15.07;;;4.00;99.90;;;;;;6120280;23;20441;-87
2021/04/18 04:33:14;;;;;;;21.43;15.53;;;4.00;99.70;;;;;;6111539;23;20411;-87
2021/04/18 04:35:54;;;;;;;20.40;15.60;;;4.00;99.50;;;;;;6123207;23;20469;-87
2021/04/18 04:38:39;;;;;;;18.00;14.80;;;3.90;99.20;;;;;;6128712;23;20398;-88
2021/04/18 04:44:01;;;;;;;16.70;15.00;;;3.90;98.30;;;;;;6115103;23;20418;-86
2021/04/18 04:46:35;;;;;;;25.93;15.17;;;3.90;97.90;;;;;;6129030;23;20462;-86
2021/04/18 04:49:15;;;;;;;17.90;16.10;;;3.90;98.40;;;;;;6129815;23;20390;-87
2021/04/18 04:51:55;;;;;;;17.80;15.43;;;3.90;98.60;;;;;;6128789;23;20805;-87
2021/04/18 04:54:35;;;;;;;17.00;15.20;;;4.00;98.30;;;;;;6106258;23;20465;-87
2021/04/18 04:57:16;;;;;;;18.03;15.27;;;4.00;97.10;;;;;;6102441;23;20409;-87
2021/04/18 04:59:56;;;;;;;17.57;15.17;;;4.10;96.50;;;;;;6071537;23;20443;-87
2021/04/18 05:02:36;;;;;;;18.67;15.73;;;4.10;96.40;;;;;;6097657;23;20480;-87
2021/04/18 05:05:13;;;;;;;17.50;15.70;;;4.20;95.60;;;;;;6106843;23;20474;-87
2021/04/18 05:07:47;;;;;;;15.50;13.83;;;4.10;95.10;;;;;;6116428;23;20422;-87
2021/04/18 05:10:29;;;;;;;16.80;14.90;;;4.10;95.00;;;;;;6108852;23;20422;-87
2021/04/18 05:13:10;;;;;;;16.80;14.63;;;4.20;94.30;;;;;;6116945;23;20406;-87
2021/04/18 05:15:47;;;;;;;16.83;15.03;;;4.20;94.20;;;;;;6104859;23;20426;-87
2021/04/18 05:18:22;;;;;;;18.83;16.80;;;4.20;93.70;;;;;;6100712;23;20418;-87
2021/04/18 05:20:58;;;;;;;17.20;15.40;;;4.30;93.80;;;;;;6106506;23;20441;-86
2021/04/18 05:23:38;;;;;;;15.50;13.90;;;4.30;93.70;;;;;;6090109;23;20458;-88
2021/04/18 05:26:09;;;;;;;18.03;14.83;;;4.20;93.40;;;;;;6096676;23;20423;-87
2021/04/18 05:28:50;;;;;;;18.23;15.10;;;4.30;93.50;;;;;;6099192;23;20453;-86
2021/04/18 05:31:25;;;;;;;16.70;13.90;;;4.30;93.50;;;;;;6108780;23;20422;-87
2021/04/18 05:34:06;;;;;;;15.70;14.10;;;4.50;92.90;;;;;;6110903;23;20399;-87
2021/04/18 05:36:39;;;;;;;16.20;14.50;;;4.60;91.70;;;;;;6060524;23;20423;-87
2021/04/18 05:39:11;;;;;;;18.33;14.23;;;4.80;91.60;;;;;;6098100;23;20469;-86
2021/04/18 05:41:56;;;;;;;17.13;15.03;;;4.90;90.80;;;;;;6107995;23;20402;-87
2021/04/18 05:44:36;;;;;;;16.70;13.83;;;4.70;90.40;;;;;;6090625;23;21140;-88
2021/04/18 05:47:16;;;;;;;16.37;14.73;;;4.80;90.30;;;;;;6107126;23;20407;-87
2021/04/18 05:49:58;;;;;;;16.70;14.47;;;4.90;90.30;;;;;;6099581;23;21043;-87
2021/04/18 05:52:39;;;;;;;14.93;13.33;;;5.00;89.60;;;;;;6108153;23;20426;-87
2021/04/18 05:55:21;;;;;;;14.70;12.77;;;4.90;88.90;;;;;;6096792;23;20410;-87
2021/04/18 05:58:10;;;;;;;14.97;13.37;;;5.10;90.10;;;;;;6103062;23;20445;-87
2021/04/18 06:00:58;;;;;;;16.03;14.13;;;5.50;86.50;;;;;;6109079;23;20440;-87
2021/04/18 06:03:38;;;;;;;15.33;13.80;;;5.20;85.10;;;;;;6108748;23;20501;-87
2021/04/18 06:06:18;;;;;;;16.40;13.70;;;5.30;86.80;;;;;;6107996;23;20512;-88
2021/04/18 06:09:04;;;;;;;14.77;13.20;;;5.30;86.70;;;;;;6093958;23;20415;-87
2021/04/18 06:11:49;;;;;;;15.90;13.50;;;5.40;85.10;;;;;;6072910;23;20469;-87
2021/04/18 06:14:30;;;;;;;17.03;14.33;;;5.30;86.60;;;;;;6107791;23;20421;-87
2021/04/18 06:17:05;;;;;;;15.20;13.67;;;5.60;85.90;;;;;;6105618;23;20457;-88
2021/04/18 06:19:45;;;;;;;15.10;13.57;;;6.10;83.10;;;;;;6109414;23;20410;-87
2021/04/18 06:22:20;;;;;;;14.40;12.90;;;5.90;83.90;;;;;;6097613;23;20441;-88
2021/04/18 06:24:52;;;;;;;14.47;12.97;;;6.00;83.10;;;;;;6110702;23;20464;-88
2021/04/18 06:44:36;;;;;;;13.83;12.43;;;7.30;76.10;;;;;;6112029;23;20462;-88
2021/04/18 06:47:29;;;;;;;14.77;13.23;;;7.30;76.10;;;;;;6108442;23;20452;-88
2021/04/18 06:50:11;;;;;;;14.93;13.40;;;7.20;76.60;;;;;;6100009;23;20420;-87
2021/04/18 06:52:51;;;;;;;14.20;12.70;;;7.40;76.10;;;;;;6108465;23;20416;-87
2021/04/18 06:55:27;;;;;;;14.07;12.77;;;8.00;75.00;;;;;;6089164;23;20487;-87
2021/04/18 06:58:05;;;;;;;13.77;12.37;;;8.30;73.50;;;;;;6116665;23;20487;-85
2021/04/18 07:00:49;;;;;;;13.90;12.50;;;8.10;74.00;;;;;;6117693;23;20844;-88
2021/04/18 07:03:46;;;;;;;14.30;12.90;;;7.70;74.00;;;;;;6112885;23;20773;-87
2021/04/18 07:09:27;;;;;;;12.87;11.57;;;9.00;71.80;;;;;;6098987;23;20407;-88
2021/04/18 07:12:13;;;;;;;13.93;12.47;;;9.30;70.30;;;;;;6113190;23;20416;-88
2021/04/18 07:14:53;;;;;;;14.10;12.70;;;9.20;70.50;;;;;;6110822;23;20557;-87
2021/04/18 07:17:30;;;;;;;13.10;11.77;;;9.50;69.80;;;;;;6091467;23;20748;-87
2021/04/18 07:20:29;;;;;;;14.07;12.70;;;9.50;69.40;;;;;;6099471;23;20416;-88
2021/04/18 07:23:34;;;;;;;13.87;12.57;;;9.20;69.00;;;;;;6105367;23;20541;-87
2021/04/18 07:26:30;;;;;;;13.93;12.63;;;9.10;68.90;;;;;;6092344;23;20426;-87
2021/04/18 07:29:18;;;;;;;13.60;12.23;;;9.20;68.70;;;;;;6082528;23;20437;-87
2021/04/18 07:32:07;;;;;;;14.73;13.23;;;9.30;68.60;;;;;;6108536;23;20409;-87
2021/04/18 07:34:42;;;;;;;14.53;13.13;;;8.70;68.50;;;;;;6108078;23;20512;-87
2021/04/18 07:37:25;;;;;;;17.00;13.73;;;8.60;69.00;;;;;;6098018;23;20422;-88
2021/04/18 07:40:06;;;;;;;15.40;13.90;;;8.50;69.10;;;;;;6095503;23;20404;-87
2021/04/18 07:42:43;;;;;;;14.40;12.93;;;8.40;69.20;;;;;;6079030;23;20444;-87
2021/04/18 07:45:21;;;;;;;14.80;13.07;;;8.80;69.60;;;;;;6107246;23;20803;-87
2021/04/18 07:50:51;;;;;;;15.97;14.37;;;9.60;67.50;;;;;;6110046;23;20410;-87
2021/04/18 07:53:30;;;;;;;14.93;13.17;;;10.00;65.70;;;;;;6103934;23;20413;-87
2021/04/18 07:56:15;;;;;;;15.10;13.70;;;9.70;65.80;;;;;;6083064;23;20414;-89
2021/04/18 07:58:57;;;;;;;16.00;14.40;;;10.00;65.50;;;;;;6099715;23;20410;-87
2021/04/18 08:04:19;;;;;;;15.57;14.07;;;10.10;64.30;;;;;;6102861;23;20434;-87
2021/04/18 08:07:04;;;;;;;18.13;15.83;;;10.50;63.10;;;;;;6111332;23;20425;-87
2021/04/18 08:10:18;;;;;;;20.27;15.10;;;10.50;63.00;;;;;;6119737;23;20414;-86
2021/04/18 08:13:08;;;;;;;16.80;14.50;;;10.60;62.60;;;;;;6112700;23;20422;-89
2021/04/18 08:15:46;;;;;;;24.17;16.80;;;10.10;62.40;;;;;;6114189;23;20429;-87
2021/04/18 08:18:42;;;;;;;16.20;14.50;;;10.00;61.80;;;;;;6116378;23;20402;-90
2021/04/18 08:21:41;;;;;;;20.70;16.23;;;10.40;61.50;;;;;;6128649;23;20413;-88
2021/04/18 08:38:24;;;;;;;17.73;15.87;;;10.30;61.90;;;;;;6118470;23;20442;-88
2021/04/18 08:41:17;;;;;;;19.87;16.43;;;9.80;62.50;;;;;;6116345;23;20433;-90
2021/04/18 08:44:14;;;;;;;21.33;16.50;;;9.40;63.00;;;;;;6104647;23;20965;-90
2021/04/18 08:46:56;;;;;;;16.73;14.90;;;9.40;63.10;;;;;;6119086;23;20458;-89
2021/04/18 08:50:15;;;;;;;16.73;15.03;;;9.50;62.50;;;;;;6107353;23;20421;-88
2021/04/18 09:01:42;;;;;;;16.57;13.80;;;8.90;63.60;;;;;;6104941;23;20484;-88
2021/04/18 09:07:09;;;;;;;17.03;15.00;;;10.10;62.20;;;;;;6089621;23;20410;-89
2021/04/18 09:09:57;;;;;;;21.10;15.60;;;10.10;61.90;;;;;;6082667;23;20429;-89
2021/04/18 09:15:53;;;;;;;17.60;14.10;;;10.40;60.60;;;;;;6105037;23;20419;-88
2021/04/18 09:18:45;;;;;;;15.30;13.70;;;10.10;61.40;;;;;;6087676;23;20442;-89
2021/04/18 09:24:13;;;;;;;16.17;14.57;;;10.90;60.50;;;;;;6122038;23;20431;-88
2021/04/18 09:27:05;;;;;;;18.90;15.47;;;10.30;60.30;;;;;;6110382;23;20465;-89
2021/04/18 09:29:57;;;;;;;16.37;13.13;;;9.40;62.10;;;;;;6123025;23;20398;-89
2021/04/18 09:39:01;;;;;;;14.90;13.30;;;10.30;60.30;;;;;;6110432;23;20422;-91
2021/04/18 09:41:41;;;;;;;15.70;14.00;;;9.20;61.80;;;;;;6097697;23;20410;-89
2021/04/18 09:50:55;;;;;;;16.27;13.07;;;11.00;59.60;;;;;;6116683;23;20410;-89
2021/04/18 09:53:30;;;;;;;14.73;13.17;;;10.70;58.80;;;;;;6120997;23;20407;-87
2021/04/18 09:56:18;;;;;;;20.37;14.27;;;10.50;59.60;;;;;;6100368;23;20444;-88
2021/04/18 09:58:53;;;;;;;14.30;12.90;;;10.60;59.20;;;;;;6100132;23;20437;-89
2021/04/18 10:01:41;;;;;;;15.40;13.80;;;11.20;59.10;;;;;;6115445;23;20426;-90
2021/04/18 10:04:33;;;;;;;16.50;14.30;;;11.10;58.40;;;;;;6095735;23;20823;-89
2021/04/18 10:07:21;;;;;;;16.77;14.40;;;10.80;58.60;;;;;;6095724;23;20520;-88
2021/04/18 10:10:02;;;;;;;16.67;14.40;;;10.60;58.70;;;;;;6095182;23;20410;-89
2021/04/18 10:40:27;;;;;;;16.83;15.00;;;10.50;59.10;;;;;;6106593;23;20753;-88
2021/04/18 10:43:09;;;;;;;18.70;15.43;;;10.20;59.60;;;;;;6108567;23;20403;-88
2021/04/18 10:45:48;;;;;;;21.23;17.00;;;10.40;59.40;;;;;;6108908;23;20418;-88
2021/04/18 10:48:23;;;;;;;17.93;16.03;;;10.60;58.80;;;;;;6109280;23;20881;-88
2021/04/18 10:51:46;;;;;;;19.80;15.70;;;10.80;58.90;;;;;;6110692;23;20490;-87
2021/04/18 10:54:29;;;;;;;20.17;16.00;;;10.70;59.20;;;;;;6109348;23;20414;-88
2021/04/18 10:57:04;;;;;;;20.47;15.50;;;11.10;58.60;;;;;;6113412;23;20428;-86
2021/04/18 10:59:40;;;;;;;18.60;16.53;;;10.80;57.90;;;;;;6120161;23;20413;-89
2021/04/18 11:02:15;;;;;;;19.93;16.10;;;11.50;57.70;;;;;;6114106;23;20417;-86
2021/04/18 11:04:50;;;;;;;21.63;17.40;;;11.00;58.00;;;;;;6102988;23;20441;-87
2021/04/18 11:07:22;;;;;;;26.23;16.67;;;10.70;58.70;;;;;;6113126;23;20414;-86
2021/04/18 11:09:58;;;;;;;18.50;15.23;;;10.90;59.60;;;;;;6113745;23;20426;-87
2021/04/18 11:12:41;;;;;;;18.40;16.50;;;11.10;58.70;;;;;;6115271;23;20404;-88
2021/04/18 11:15:17;;;;;;;19.90;15.60;;;11.80;58.10;;;;;;6113152;23;20410;-87
2021/04/18 11:17:52;;;;;;;20.90;16.90;;;11.70;58.20;;;;;;6108021;23;20429;-87
2021/04/18 11:20:36;;;;;;;19.10;16.67;;;11.50;57.60;;;;;;6119402;23;20429;-86
2021/04/18 11:23:16;;;;;;;19.50;17.17;;;11.40;58.00;;;;;;6112539;23;20453;-85
2021/04/18 11:25:57;;;;;;;18.30;16.10;;;11.50;58.30;;;;;;6108560;23;20450;-86
2021/04/18 11:28:32;;;;;;;18.00;16.10;;;11.70;57.80;;;;;;6125970;23;20407;-87
2021/04/18 11:31:08;;;;;;;18.40;16.50;;;11.70;58.10;;;;;;6115129;23;20420;-85
2021/04/18 11:36:30;;;;;;;23.43;16.50;;;11.50;58.40;;;;;;6127281;23;20425;-86
2021/04/18 11:39:04;;;;;;;16.87;14.90;;;11.70;58.40;;;;;;6112871;23;20413;-87
2021/04/18 11:41:42;;;;;;;19.83;16.17;;;11.70;58.10;;;;;;6113458;23;20461;-87
2021/04/18 11:44:17;;;;;;;20.80;16.17;;;12.10;57.90;;;;;;6119705;23;20461;-86
2021/04/18 11:46:54;;;;;;;21.77;16.73;;;12.40;56.70;;;;;;6129088;23;20402;-91
2021/04/18 11:49:29;;;;;;;18.07;16.03;;;12.60;57.10;;;;;;6091756;23;20563;-87
2021/04/18 11:52:14;;;;;;;17.30;15.10;;;12.40;56.80;;;;;;6118581;23;20449;-85
2021/04/18 11:54:49;;;;;;;19.10;16.03;;;12.60;56.30;;;;;;6104864;23;20395;-87
2021/04/18 11:57:27;;;;;;;19.33;17.30;;;13.10;56.00;;;;;;6113038;23;20402;-87
2021/04/18 12:00:02;;;;;;;16.60;14.83;;;12.20;56.50;;;;;;6102765;23;20417;-86
2021/04/18 12:02:38;;;;;;;17.37;15.57;;;12.50;56.50;;;;;;6108495;23;20441;-87
2021/04/18 12:05:14;;;;;;;17.40;15.50;;;12.50;56.50;;;;;;6106363;23;20882;-86
2021/04/18 12:07:49;;;;;;;20.50;16.40;;;12.60;55.80;;;;;;6103588;23;20465;-87
2021/04/18 12:10:25;;;;;;;18.37;15.77;;;12.10;56.30;;;;;;6111312;23;20417;-89
2021/04/18 12:13:00;;;;;;;18.77;15.20;;;12.30;55.90;;;;;;6123972;23;20529;-86
2021/04/18 12:15:36;;;;;;;16.43;14.63;;;13.10;55.80;;;;;;6114418;23;20426;-86
2021/04/18 12:20:57;;;;;;;15.60;13.90;;;13.80;54.70;;;;;;6088246;23;20425;-85
2021/04/18 12:23:30;;;;;;;15.13;13.57;;;14.60;53.00;;;;;;6117325;23;20957;-87
2021/04/18 12:26:07;;;;;;;17.23;13.10;;;14.40;52.50;;;;;;6115243;23;20425;-87
2021/04/18 12:28:52;;;;;;;15.13;13.53;;;13.90;51.80;;;;;;6104274;23;20417;-87
2021/04/18 12:31:37;;;;;;;17.57;13.80;;;14.40;51.70;;;;;;6097985;23;20418;-87
2021/04/18 12:34:09;;;;;;;15.80;14.20;;;14.70;51.30;;;;;;6105649;23;20413;-85
2021/04/18 12:36:44;;;;;;;16.50;12.47;;;14.50;51.20;;;;;;6104938;23;21064;-85
2021/04/18 12:39:19;;;;;;;17.67;15.63;;;14.50;50.80;;;;;;6113109;23;20449;-86
2021/04/18 12:41:55;;;;;;;16.77;14.93;;;13.10;51.40;;;;;;6113852;23;20508;-86
2021/04/18 12:44:37;;;;;;;15.70;13.93;;;12.80;52.80;;;;;;6115734;23;20446;-86
2021/04/18 12:47:18;;;;;;;17.80;14.40;;;12.90;52.70;;;;;;6104901;23;20417;-87
2021/04/18 12:49:56;;;;;;;20.90;14.53;;;12.60;52.90;;;;;;6110978;23;20410;-86
2021/04/18 12:52:36;;;;;;;18.43;14.73;;;12.70;52.70;;;;;;6110360;23;20417;-86
2021/04/18 12:55:31;;;;;;;17.67;13.97;;;12.60;52.90;;;;;;6086063;23;20424;-87
2021/04/18 12:58:05;;;;;;;17.20;14.00;;;12.00;52.70;;;;;;6108854;23;20470;-89
2021/04/18 13:00:41;;;;;;;17.73;13.80;;;11.60;53.20;;;;;;6110277;23;20408;-87
2021/04/18 13:03:32;;;;;;;17.90;13.23;;;11.60;53.30;;;;;;6097680;23;20541;-86
2021/04/18 13:06:13;;;;;;;15.20;12.37;;;11.90;53.60;;;;;;6112376;23;20490;-91
2021/04/18 13:11:35;;;;;;;14.53;12.17;;;12.60;53.00;;;;;;6108041;23;20474;-84
2021/04/18 13:14:15;;;;;;;12.57;10.80;;;12.70;52.70;;;;;;6112956;23;20414;-88
2021/04/18 13:19:38;;;;;;;14.50;11.67;;;12.80;53.20;;;;;;6099560;23;20735;-86
2021/04/18 13:22:14;;;;;;;15.30;11.90;;;12.60;53.00;;;;;;6110275;23;20417;-87
2021/04/18 13:24:49;;;;;;;13.97;10.90;;;12.70;52.90;;;;;;6103297;23;20525;-86
2021/04/18 13:27:24;;;;;;;13.30;12.00;;;12.00;53.40;;;;;;6112021;23;20398;-87
2021/04/18 13:29:59;;;;;;;14.23;12.10;;;11.70;53.80;;;;;;6116341;23;20618;-84
2021/04/18 13:32:31;;;;;;;13.60;12.10;;;11.80;53.80;;;;;;6119217;23;20422;-84
2021/04/18 13:35:08;;;;;;;12.60;11.30;;;11.80;53.70;;;;;;6100878;23;20414;-89
2021/04/18 13:37:44;;;;;;;14.87;10.77;;;11.70;53.30;;;;;;6088479;23;20448;-86
2021/04/18 13:40:21;;;;;;;12.37;11.10;;;11.70;53.60;;;;;;6105787;23;20437;-86
2021/04/18 13:42:56;;;;;;;12.80;11.30;;;12.50;53.30;;;;;;6114237;23;20418;-89
2021/04/18 13:45:31;;;;;;;12.27;10.60;;;12.30;52.90;;;;;;6112107;23;20418;-86
2021/04/18 13:48:07;;;;;;;14.77;11.47;;;12.30;52.90;;;;;;6110825;23;20529;-87
2021/04/18 13:53:37;;;;;;;11.30;10.10;;;12.30;52.60;;;;;;6103325;23;20425;-86
2021/04/18 13:56:22;;;;;;;10.63;9.50;;;12.50;52.60;;;;;;6103746;23;20968;-85
2021/04/18 13:58:58;;;;;;;12.17;10.87;;;12.80;52.30;;;;;;6112963;23;20738;-86
2021/04/18 14:01:34;;;;;;;12.80;10.00;;;13.00;52.50;;;;;;6081103;23;20452;-85
2021/04/18 14:04:22;;;;;;;12.53;10.70;;;13.20;52.00;;;;;;6101132;23;20433;-88
2021/04/18 14:06:58;;;;;;;12.33;10.60;;;13.10;51.80;;;;;;6114422;23;20504;-85
2021/04/18 14:09:37;;;;;;;14.60;10.30;;;13.50;51.80;;;;;;6116230;23;20415;-85
2021/04/18 14:12:13;;;;;;;11.03;9.90;;;13.90;51.20;;;;;;6104999;23;20719;-86
2021/04/18 14:14:47;;;;;;;12.77;11.50;;;14.10;51.20;;;;;;6110331;23;20424;-88
2021/04/18 14:17:29;;;;;;;13.93;10.30;;;14.20;50.80;;;;;;6107714;23;20425;-86
2021/04/18 14:23:00;;;;;;;12.73;11.43;;;14.60;50.20;;;;;;6112086;23;20437;-86
2021/04/18 14:25:49;;;;;;;15.10;12.60;;;14.00;50.90;;;;;;6107167;23;20418;-87
2021/04/18 14:28:44;;;;;;;14.80;11.70;;;14.90;50.20;;;;;;6117450;23;20407;-86
2021/04/18 14:31:17;;;;;;;11.13;9.97;;;15.30;49.70;;;;;;6102856;23;20481;-85
2021/04/18 14:33:50;;;;;;;11.33;10.13;;;14.70;49.20;;;;;;6117558;23;20712;-88
2021/04/18 14:36:26;;;;;;;11.20;10.10;;;14.40;49.90;;;;;;6117239;23;20894;-86
2021/04/18 14:39:03;;;;;;;13.00;11.70;;;14.10;50.10;;;;;;6111507;23;20394;-87
2021/04/18 14:41:38;;;;;;;13.20;10.73;;;13.50;50.30;;;;;;6111085;23;20413;-86
2021/04/18 14:44:19;;;;;;;12.43;10.10;;;13.10;50.70;;;;;;6102220;23;20437;-88
2021/04/18 14:46:55;;;;;;;12.93;11.07;;;12.50;51.00;;;;;;6118823;23;20414;-86
2021/04/18 14:49:33;;;;;;;12.37;11.07;;;12.40;51.30;;;;;;6125015;23;20402;-89
2021/04/18 14:52:09;;;;;;;11.97;10.63;;;11.70;51.10;;;;;;6112136;23;20505;-84
2021/04/18 14:54:44;;;;;;;11.13;9.93;;;11.50;51.70;;;;;;6120609;23;20494;-86
2021/04/18 14:57:19;;;;;;;13.03;10.87;;;11.30;51.90;;;;;;6116656;23;20424;-86
2021/04/18 14:59:54;;;;;;;12.80;10.10;;;11.40;52.20;;;;;;6116134;23;20435;-87
2021/04/18 15:02:24;;;;;;;11.80;9.80;;;11.30;52.20;;;;;;6126346;23;20420;-89
2021/04/18 15:05:05;;;;;;;12.33;11.10;;;11.20;52.80;;;;;;6128311;23;20436;-87
2021/04/18 15:16:01;;;;;;;11.10;9.80;;;10.80;52.90;;;;;;6116911;23;20426;-87
2021/04/18 15:18:56;;;;;;;11.27;10.17;;;10.80;53.10;;;;;;6128555;23;20420;-89
2021/04/18 15:21:28;;;;;;;11.50;9.50;;;10.80;53.70;;;;;;6106293;23;20417;-87
2021/04/18 15:24:16;;;;;;;14.60;10.97;;;10.80;53.40;;;;;;6112887;23;20445;-88
2021/04/18 15:27:02;;;;;;;13.80;10.67;;;10.80;53.80;;;;;;6111923;23;20797;-89
2021/04/18 15:29:45;;;;;;;12.20;10.20;;;10.70;53.50;;;;;;6077128;23;20414;-90
2021/04/18 15:32:26;;;;;;;11.40;10.30;;;10.50;53.80;;;;;;6102405;23;20414;-90
2021/04/18 15:37:54;;;;;;;12.13;10.00;;;10.60;53.40;;;;;;6101736;23;20422;-91
2021/04/18 15:43:37;;;;;;;13.40;10.03;;;10.50;53.30;;;;;;6088237;23;20906;-90
2021/04/18 15:46:33;;;;;;;10.43;9.37;;;10.60;53.50;;;;;;6124235;23;20444;-89
2021/04/18 15:49:22;;;;;;;11.97;9.27;;;10.60;53.30;;;;;;6075164;23;20757;-89
2021/04/18 15:55:50;;;;;;;10.40;9.20;;;10.60;54.00;;;;;;6111573;23;20414;-91
2021/04/18 16:02:20;;;;;;;12.77;10.53;;;10.50;54.50;;;;;;6100607;23;20945;-90
2021/04/18 16:07:59;;;;;;;11.80;9.30;;;10.60;54.50;;;;;;6100081;23;20432;-89
2021/04/18 16:10:52;;;;;;;11.40;9.77;;;10.70;54.20;;;;;;6106115;23;20401;-88
2021/04/18 16:16:22;;;;;;;11.93;9.10;;;10.60;54.10;;;;;;6100479;23;20430;-89
2021/04/18 16:22:25;;;;;;;10.23;9.17;;;10.50;54.30;;;;;;6086217;23;20461;-89
2021/04/18 16:34:48;;;;;;;11.10;9.10;;;10.40;53.40;;;;;;6101009;23;20457;-89
2021/04/18 16:49:05;;;;;;;9.60;8.60;;;10.40;53.10;;;;;;6075477;23;20902;-90
2021/04/18 16:51:59;;;;;;;11.77;10.30;;;10.40;53.30;;;;;;6071009;23;20874;-89
2021/04/18 16:54:50;;;;;;;12.27;9.97;;;10.50;53.40;;;;;;6070407;23;20453;-90
2021/04/18 17:06:19;;;;;;;12.27;10.40;;;10.30;55.20;;;;;;6084337;23;20729;-89
2021/04/18 17:09:22;;;;;;;10.17;8.87;;;10.30;55.40;;;;;;6072100;23;20425;-90
2021/04/18 17:15:19;;;;;;;10.37;8.97;;;10.20;56.00;;;;;;6074443;23;20462;-90
2021/04/18 17:24:19;;;;;;;11.90;10.10;;;10.20;56.80;;;;;;6066520;23;20446;-89
2021/04/18 17:35:52;;;;;;;12.33;10.67;;;9.90;58.40;;;;;;6105236;23;20438;-89
2021/04/18 17:38:45;;;;;;;10.87;9.77;;;9.90;58.60;;;;;;6120541;23;20469;-89
2021/04/18 17:41:36;;;;;;;17.10;10.23;;;9.80;58.60;;;;;;6096308;23;20417;-89
2021/04/18 17:53:54;;;;;;;18.13;13.20;;;9.70;59.20;;;;;;6108613;23;20429;-89
2021/04/18 18:21:57;;;;;;;16.87;13.20;;;9.60;61.70;;;;;;6123355;23;20427;-89